sensor_id;sensor_type;location;lat;lon;timestamp;temperature;humidity
17146;DHT22;8688;54.444;18.444;2023-03-26T00:00:48;5.60;99.90
17146;DHT22;8688;54.444;18.444;2023-03-26T00:03:19;5.60;99.90
17146;DHT22;8688;54.444;18.444;2023-03-26T00:05:47;5.60;99.90
17146;DHT22;8688;54.444;18.444;2023-03-26T00:08:16;5.60;99.90
17146;DHT22;8688;54.444;18.444;2023-03-26T00:10:45;5.70;99.90
17146;DHT22;8688;54.444;18.444;2023-03-26T00:13:12;5.70;99.90
17146;DHT22;8688;54.444;18.444;2023-03-26T00:15:40;5.80;99.90
17146;DHT22;8688;54.444;18.444;2023-03-26T00:18:07;5.80;99.90
17146;DHT22;8688;54.444;18.444;2023-03-26T00:20:35;5.80;99.90
17146;DHT22;8688;54.444;18.444;2023-03-26T00:23:03;5.80;99.90
17146;DHT22;8688;54.444;18.444;2023-03-26T00:25:37;5.80;99.90
17146;DHT22;8688;54.444;18.444;2023-03-26T00:28:06;5.80;99.90
17146;DHT22;8688;54.444;18.444;2023-03-26T00:30:34;5.90;99.90
17146;DHT22;8688;54.444;18.444;2023-03-26T00:33:01;5.90;99.90
17146;DHT22;8688;54.444;18.444;2023-03-26T00:35:29;5.90;99.90
17146;DHT22;8688;54.444;18.444;2023-03-26T00:37:56;5.90;99.90
17146;DHT22;8688;54.444;18.444;2023-03-26T00:40:24;6.00;99.90
17146;DHT22;8688;54.444;18.444;2023-03-26T00:42:53;6.00;99.90
17146;DHT22;8688;54.444;18.444;2023-03-26T00:45:21;6.00;99.90
17146;DHT22;8688;54.444;18.444;2023-03-26T00:47:48;6.00;99.90
17146;DHT22;8688;54.444;18.444;2023-03-26T00:50:16;6.00;99.90
17146;DHT22;8688;54.444;18.444;2023-03-26T00:52:44;6.00;99.90
17146;DHT22;8688;54.444;18.444;2023-03-26T00:55:12;6.10;99.90
17146;DHT22;8688;54.444;18.444;2023-03-26T00:57:40;6.10;99.90
17146;DHT22;8688;54.444;18.444;2023-03-26T01:00:14;6.10;99.90
17146;DHT22;8688;54.444;18.444;2023-03-26T01:02:42;6.10;99.90
17146;DHT22;8688;54.444;18.444;2023-03-26T01:05:40;6.10;99.90
17146;DHT22;8688;54.444;18.444;2023-03-26T01:08:18;6.20;99.90
17146;DHT22;8688;54.444;18.444;2023-03-26T01:10:51;6.20;99.90
17146;DHT22;8688;54.444;18.444;2023-03-26T01:13:21;6.20;99.90
17146;DHT22;8688;54.444;18.444;2023-03-26T01:15:50;6.20;99.90
17146;DHT22;8688;54.444;18.444;2023-03-26T01:18:20;6.20;99.90
17146;DHT22;8688;54.444;18.444;2023-03-26T01:20:53;6.20;99.90
17146;DHT22;8688;54.444;18.444;2023-03-26T01:23:26;6.20;99.90
17146;DHT22;8688;54.444;18.444;2023-03-26T01:26:04;6.20;99.90
17146;DHT22;8688;54.444;18.444;2023-03-26T01:28:37;6.20;99.90
17146;DHT22;8688;54.444;18.444;2023-03-26T01:31:13;6.20;99.90
17146;DHT22;8688;54.444;18.444;2023-03-26T01:33:47;6.20;99.90
17146;DHT22;8688;54.444;18.444;2023-03-26T01:36:22;6.20;99.90
17146;DHT22;8688;54.444;18.444;2023-03-26T01:38:58;6.20;99.90
17146;DHT22;8688;54.444;18.444;2023-03-26T01:41:35;6.20;99.90
17146;DHT22;8688;54.444;18.444;2023-03-26T01:44:10;6.20;99.90
17146;DHT22;8688;54.444;18.444;2023-03-26T01:46:41;6.20;99.90
17146;DHT22;8688;54.444;18.444;2023-03-26T01:49:08;6.20;99.90
17146;DHT22;8688;54.444;18.444;2023-03-26T01:51:40;6.10;99.90
17146;DHT22;8688;54.444;18.444;2023-03-26T01:54:11;6.10;99.90
17146;DHT22;8688;54.444;18.444;2023-03-26T01:56:47;6.20;99.90
17146;DHT22;8688;54.444;18.444;2023-03-26T01:59:28;6.20;99.90
17146;DHT22;8688;54.444;18.444;2023-03-26T02:02:04;6.20;99.90
17146;DHT22;8688;54.444;18.444;2023-03-26T02:04:41;6.20;99.90
17146;DHT22;8688;54.444;18.444;2023-03-26T02:07:21;6.20;99.90
17146;DHT22;8688;54.444;18.444;2023-03-26T02:09:52;6.20;99.90
17146;DHT22;8688;54.444;18.444;2023-03-26T02:12:23;6.20;99.90
17146;DHT22;8688;54.444;18.444;2023-03-26T02:14:51;6.20;99.90
17146;DHT22;8688;54.444;18.444;2023-03-26T02:17:18;6.20;99.90
17146;DHT22;8688;54.444;18.444;2023-03-26T02:19:49;6.20;99.90
17146;DHT22;8688;54.444;18.444;2023-03-26T02:22:16;6.30;99.90
17146;DHT22;8688;54.444;18.444;2023-03-26T02:24:44;6.30;99.90
17146;DHT22;8688;54.444;18.444;2023-03-26T02:27:12;6.30;99.90
17146;DHT22;8688;54.444;18.444;2023-03-26T02:29:40;6.30;99.90
17146;DHT22;8688;54.444;18.444;2023-03-26T02:32:09;6.30;99.90
17146;DHT22;8688;54.444;18.444;2023-03-26T02:34:38;6.30;99.90
17146;DHT22;8688;54.444;18.444;2023-03-26T02:37:06;6.30;99.90
17146;DHT22;8688;54.444;18.444;2023-03-26T02:39:34;6.30;99.90
17146;DHT22;8688;54.444;18.444;2023-03-26T02:42:01;6.30;99.90
17146;DHT22;8688;54.444;18.444;2023-03-26T02:44:29;6.30;99.90
17146;DHT22;8688;54.444;18.444;2023-03-26T02:46:57;6.30;99.90
17146;DHT22;8688;54.444;18.444;2023-03-26T02:49:25;6.30;99.90
17146;DHT22;8688;54.444;18.444;2023-03-26T02:51:53;6.30;99.90
17146;DHT22;8688;54.444;18.444;2023-03-26T02:54:21;6.30;99.90
17146;DHT22;8688;54.444;18.444;2023-03-26T02:56:48;6.30;99.90
17146;DHT22;8688;54.444;18.444;2023-03-26T02:59:16;6.30;99.90
17146;DHT22;8688;54.444;18.444;2023-03-26T03:01:43;6.30;99.90
17146;DHT22;8688;54.444;18.444;2023-03-26T03:04:12;6.30;99.90
17146;DHT22;8688;54.444;18.444;2023-03-26T03:06:40;6.30;99.90
17146;DHT22;8688;54.444;18.444;2023-03-26T03:09:09;6.30;99.90
17146;DHT22;8688;54.444;18.444;2023-03-26T03:11:38;6.30;99.90
17146;DHT22;8688;54.444;18.444;2023-03-26T03:14:06;6.30;99.90
17146;DHT22;8688;54.444;18.444;2023-03-26T03:16:33;6.40;99.90
17146;DHT22;8688;54.444;18.444;2023-03-26T03:19:01;6.30;99.90
17146;DHT22;8688;54.444;18.444;2023-03-26T03:21:32;6.30;99.90
17146;DHT22;8688;54.444;18.444;2023-03-26T03:23:59;6.30;99.90
17146;DHT22;8688;54.444;18.444;2023-03-26T03:26:27;6.40;99.90
17146;DHT22;8688;54.444;18.444;2023-03-26T03:28:56;6.30;99.90
17146;DHT22;8688;54.444;18.444;2023-03-26T03:31:24;6.30;99.90
17146;DHT22;8688;54.444;18.444;2023-03-26T03:33:53;6.30;99.90
17146;DHT22;8688;54.444;18.444;2023-03-26T03:36:21;6.30;99.90
17146;DHT22;8688;54.444;18.444;2023-03-26T03:38:50;6.20;99.90
17146;DHT22;8688;54.444;18.444;2023-03-26T03:41:18;6.30;99.90
17146;DHT22;8688;54.444;18.444;2023-03-26T03:43:45;6.20;99.90
17146;DHT22;8688;54.444;18.444;2023-03-26T03:46:13;6.20;99.90
17146;DHT22;8688;54.444;18.444;2023-03-26T03:48:40;6.20;99.90
17146;DHT22;8688;54.444;18.444;2023-03-26T03:51:12;6.20;99.90
17146;DHT22;8688;54.444;18.444;2023-03-26T03:53:40;6.20;99.90
17146;DHT22;8688;54.444;18.444;2023-03-26T03:56:09;6.20;99.90
17146;DHT22;8688;54.444;18.444;2023-03-26T03:58:39;6.30;99.90
17146;DHT22;8688;54.444;18.444;2023-03-26T04:01:07;6.30;99.90
17146;DHT22;8688;54.444;18.444;2023-03-26T04:03:35;6.30;99.90
17146;DHT22;8688;54.444;18.444;2023-03-26T04:06:04;6.30;99.90
17146;DHT22;8688;54.444;18.444;2023-03-26T04:08:32;6.30;99.90
17146;DHT22;8688;54.444;18.444;2023-03-26T04:11:01;6.30;99.90
17146;DHT22;8688;54.444;18.444;2023-03-26T04:13:30;6.30;99.90
17146;DHT22;8688;54.444;18.444;2023-03-26T04:15:57;6.40;99.90
17146;DHT22;8688;54.444;18.444;2023-03-26T04:18:25;6.40;99.90
17146;DHT22;8688;54.444;18.444;2023-03-26T04:20:52;6.40;99.90
17146;DHT22;8688;54.444;18.444;2023-03-26T04:23:21;6.30;99.90
17146;DHT22;8688;54.444;18.444;2023-03-26T04:25:50;6.40;99.90
17146;DHT22;8688;54.444;18.444;2023-03-26T04:28:26;6.40;99.90
17146;DHT22;8688;54.444;18.444;2023-03-26T04:30:58;6.40;99.90
17146;DHT22;8688;54.444;18.444;2023-03-26T04:33:28;6.40;99.90
17146;DHT22;8688;54.444;18.444;2023-03-26T04:35:56;6.40;99.90
17146;DHT22;8688;54.444;18.444;2023-03-26T04:38:27;6.40;99.90
17146;DHT22;8688;54.444;18.444;2023-03-26T04:40:58;6.40;99.90
17146;DHT22;8688;54.444;18.444;2023-03-26T04:43:28;6.40;99.90
17146;DHT22;8688;54.444;18.444;2023-03-26T04:46:02;6.30;99.90
17146;DHT22;8688;54.444;18.444;2023-03-26T04:48:29;6.40;99.90
17146;DHT22;8688;54.444;18.444;2023-03-26T04:50:57;6.40;99.90
17146;DHT22;8688;54.444;18.444;2023-03-26T04:53:26;6.40;99.90
17146;DHT22;8688;54.444;18.444;2023-03-26T04:55:57;6.40;99.90
17146;DHT22;8688;54.444;18.444;2023-03-26T04:58:27;6.50;99.90
17146;DHT22;8688;54.444;18.444;2023-03-26T05:00:57;6.50;99.90
17146;DHT22;8688;54.444;18.444;2023-03-26T05:03:27;6.50;99.90
17146;DHT22;8688;54.444;18.444;2023-03-26T05:05:56;6.50;99.90
17146;DHT22;8688;54.444;18.444;2023-03-26T05:08:25;6.50;99.90
17146;DHT22;8688;54.444;18.444;2023-03-26T05:10:54;6.50;99.90
17146;DHT22;8688;54.444;18.444;2023-03-26T05:13:21;6.60;99.90
17146;DHT22;8688;54.444;18.444;2023-03-26T05:15:49;6.60;99.90
17146;DHT22;8688;54.444;18.444;2023-03-26T05:18:17;6.60;99.90
17146;DHT22;8688;54.444;18.444;2023-03-26T05:20:46;6.70;99.90
17146;DHT22;8688;54.444;18.444;2023-03-26T05:23:13;6.70;99.90
17146;DHT22;8688;54.444;18.444;2023-03-26T05:25:41;6.70;99.90
17146;DHT22;8688;54.444;18.444;2023-03-26T05:28:09;6.70;99.90
17146;DHT22;8688;54.444;18.444;2023-03-26T05:30:37;6.60;99.90
17146;DHT22;8688;54.444;18.444;2023-03-26T05:33:04;6.60;99.90
17146;DHT22;8688;54.444;18.444;2023-03-26T05:35:32;6.60;99.90
17146;DHT22;8688;54.444;18.444;2023-03-26T05:38:00;6.50;99.90
17146;DHT22;8688;54.444;18.444;2023-03-26T05:40:28;6.40;99.90
17146;DHT22;8688;54.444;18.444;2023-03-26T05:42:55;6.30;99.90
17146;DHT22;8688;54.444;18.444;2023-03-26T05:45:23;6.30;99.90
17146;DHT22;8688;54.444;18.444;2023-03-26T05:47:50;6.20;99.90
17146;DHT22;8688;54.444;18.444;2023-03-26T05:50:19;6.20;99.90
17146;DHT22;8688;54.444;18.444;2023-03-26T05:52:47;6.20;99.90
17146;DHT22;8688;54.444;18.444;2023-03-26T05:55:16;6.30;99.90
17146;DHT22;8688;54.444;18.444;2023-03-26T05:57:44;6.30;99.90
17146;DHT22;8688;54.444;18.444;2023-03-26T06:00:12;6.30;99.90
17146;DHT22;8688;54.444;18.444;2023-03-26T06:02:40;6.30;99.90
17146;DHT22;8688;54.444;18.444;2023-03-26T06:05:08;6.30;99.90
17146;DHT22;8688;54.444;18.444;2023-03-26T06:07:37;6.40;99.90
17146;DHT22;8688;54.444;18.444;2023-03-26T06:10:05;6.40;99.90
17146;DHT22;8688;54.444;18.444;2023-03-26T06:12:35;6.40;99.90
17146;DHT22;8688;54.444;18.444;2023-03-26T06:15:03;6.50;99.90
17146;DHT22;8688;54.444;18.444;2023-03-26T06:17:31;6.50;99.90
17146;DHT22;8688;54.444;18.444;2023-03-26T06:19:58;6.60;99.90
17146;DHT22;8688;54.444;18.444;2023-03-26T06:22:26;6.60;99.90
17146;DHT22;8688;54.444;18.444;2023-03-26T06:24:53;6.60;99.90
17146;DHT22;8688;54.444;18.444;2023-03-26T06:27:21;6.60;99.90
17146;DHT22;8688;54.444;18.444;2023-03-26T06:29:50;6.70;99.90
17146;DHT22;8688;54.444;18.444;2023-03-26T06:32:17;6.70;99.90
17146;DHT22;8688;54.444;18.444;2023-03-26T06:34:45;6.70;99.90
17146;DHT22;8688;54.444;18.444;2023-03-26T06:37:13;6.70;99.90
17146;DHT22;8688;54.444;18.444;2023-03-26T06:39:40;6.70;99.90
17146;DHT22;8688;54.444;18.444;2023-03-26T06:42:07;6.80;99.90
17146;DHT22;8688;54.444;18.444;2023-03-26T06:44:35;6.70;99.90
17146;DHT22;8688;54.444;18.444;2023-03-26T06:47:04;6.80;99.90
17146;DHT22;8688;54.444;18.444;2023-03-26T06:49:31;6.90;99.90
17146;DHT22;8688;54.444;18.444;2023-03-26T06:51:59;6.90;99.90
17146;DHT22;8688;54.444;18.444;2023-03-26T06:54:27;7.00;99.90
17146;DHT22;8688;54.444;18.444;2023-03-26T06:56:56;7.00;99.90
17146;DHT22;8688;54.444;18.444;2023-03-26T06:59:23;7.10;99.90
17146;DHT22;8688;54.444;18.444;2023-03-26T07:01:51;7.10;99.90
17146;DHT22;8688;54.444;18.444;2023-03-26T07:04:20;7.00;99.90
17146;DHT22;8688;54.444;18.444;2023-03-26T07:06:48;7.00;99.90
17146;DHT22;8688;54.444;18.444;2023-03-26T07:09:15;7.00;99.90
17146;DHT22;8688;54.444;18.444;2023-03-26T07:11:43;7.00;99.90
17146;DHT22;8688;54.444;18.444;2023-03-26T07:14:10;6.90;99.90
17146;DHT22;8688;54.444;18.444;2023-03-26T07:16:38;7.00;99.90
17146;DHT22;8688;54.444;18.444;2023-03-26T07:19:06;7.00;99.90
17146;DHT22;8688;54.444;18.444;2023-03-26T07:21:37;6.90;99.90
17146;DHT22;8688;54.444;18.444;2023-03-26T07:24:07;6.90;99.90
17146;DHT22;8688;54.444;18.444;2023-03-26T07:26:40;7.00;99.90
17146;DHT22;8688;54.444;18.444;2023-03-26T07:29:17;6.90;99.90
17146;DHT22;8688;54.444;18.444;2023-03-26T07:31:51;7.00;99.90
17146;DHT22;8688;54.444;18.444;2023-03-26T07:34:34;7.00;99.90
17146;DHT22;8688;54.444;18.444;2023-03-26T07:37:15;7.00;99.90
17146;DHT22;8688;54.444;18.444;2023-03-26T07:39:50;7.10;99.90
17146;DHT22;8688;54.444;18.444;2023-03-26T07:42:30;7.20;99.90
17146;DHT22;8688;54.444;18.444;2023-03-26T07:45:07;7.20;99.90
17146;DHT22;8688;54.444;18.444;2023-03-26T07:47:36;7.40;99.90
17146;DHT22;8688;54.444;18.444;2023-03-26T07:50:08;7.50;99.90
17146;DHT22;8688;54.444;18.444;2023-03-26T07:52:42;7.50;99.90
17146;DHT22;8688;54.444;18.444;2023-03-26T07:55:13;7.50;33.20
17146;DHT22;8688;54.444;18.444;2023-03-26T07:57:49;7.50;1.00
17146;DHT22;8688;54.444;18.444;2023-03-26T08:00:25;7.60;1.00
17146;DHT22;8688;54.444;18.444;2023-03-26T08:03:22;7.70;1.00
17146;DHT22;8688;54.444;18.444;2023-03-26T08:06:00;7.60;1.00
17146;DHT22;8688;54.444;18.444;2023-03-26T08:08:37;7.60;1.00
17146;DHT22;8688;54.444;18.444;2023-03-26T08:11:17;7.70;1.00
17146;DHT22;8688;54.444;18.444;2023-03-26T08:13:56;7.90;1.00
17146;DHT22;8688;54.444;18.444;2023-03-26T08:16:32;8.00;1.00
17146;DHT22;8688;54.444;18.444;2023-03-26T08:19:08;8.00;1.00
17146;DHT22;8688;54.444;18.444;2023-03-26T08:21:46;7.90;1.00
17146;DHT22;8688;54.444;18.444;2023-03-26T08:24:20;7.70;1.00
17146;DHT22;8688;54.444;18.444;2023-03-26T08:26:54;7.70;1.00
17146;DHT22;8688;54.444;18.444;2023-03-26T08:29:29;7.80;1.00
17146;DHT22;8688;54.444;18.444;2023-03-26T08:32:03;7.70;1.00
17146;DHT22;8688;54.444;18.444;2023-03-26T08:34:31;7.70;1.00
17146;DHT22;8688;54.444;18.444;2023-03-26T08:36:58;7.70;1.00
17146;DHT22;8688;54.444;18.444;2023-03-26T08:39:27;7.70;1.00
17146;DHT22;8688;54.444;18.444;2023-03-26T08:45:41;7.80;1.00
17146;DHT22;8688;54.444;18.444;2023-03-26T08:48:49;8.00;1.00
17146;DHT22;8688;54.444;18.444;2023-03-26T08:54:47;8.20;1.00
17146;DHT22;8688;54.444;18.444;2023-03-26T08:57:49;8.30;1.00
17146;DHT22;8688;54.444;18.444;2023-03-26T09:03:34;8.40;1.00
17146;DHT22;8688;54.444;18.444;2023-03-26T09:06:32;8.50;1.00
17146;DHT22;8688;54.444;18.444;2023-03-26T09:12:33;8.30;1.00
17146;DHT22;8688;54.444;18.444;2023-03-26T09:15:31;8.40;1.00
17146;DHT22;8688;54.444;18.444;2023-03-26T09:21:22;8.40;1.00
17146;DHT22;8688;54.444;18.444;2023-03-26T09:27:23;8.50;1.00
17146;DHT22;8688;54.444;18.444;2023-03-26T09:30:32;8.60;1.00
17146;DHT22;8688;54.444;18.444;2023-03-26T09:33:30;8.50;1.00
17146;DHT22;8688;54.444;18.444;2023-03-26T09:36:17;8.50;1.00
17146;DHT22;8688;54.444;18.444;2023-03-26T09:38:52;8.50;1.00
17146;DHT22;8688;54.444;18.444;2023-03-26T09:41:34;8.40;99.90
17146;DHT22;8688;54.444;18.444;2023-03-26T09:44:42;8.50;1.00
17146;DHT22;8688;54.444;18.444;2023-03-26T09:50:44;8.60;1.00
17146;DHT22;8688;54.444;18.444;2023-03-26T09:56:23;8.30;99.90
17146;DHT22;8688;54.444;18.444;2023-03-26T09:59:15;8.20;1.00
17146;DHT22;8688;54.444;18.444;2023-03-26T10:01:55;8.20;1.00
17146;DHT22;8688;54.444;18.444;2023-03-26T10:04:40;8.10;1.00
17146;DHT22;8688;54.444;18.444;2023-03-26T10:07:35;8.20;1.00
17146;DHT22;8688;54.444;18.444;2023-03-26T10:10:14;8.30;1.00
17146;DHT22;8688;54.444;18.444;2023-03-26T10:12:47;8.50;1.00
17146;DHT22;8688;54.444;18.444;2023-03-26T10:15:26;8.60;1.00
17146;DHT22;8688;54.444;18.444;2023-03-26T10:18:08;8.50;1.00
17146;DHT22;8688;54.444;18.444;2023-03-26T10:20:50;8.40;99.90
17146;DHT22;8688;54.444;18.444;2023-03-26T10:23:35;8.40;99.90
17146;DHT22;8688;54.444;18.444;2023-03-26T10:26:23;8.40;99.90
17146;DHT22;8688;54.444;18.444;2023-03-26T10:29:09;8.60;99.90
17146;DHT22;8688;54.444;18.444;2023-03-26T10:31:43;8.70;99.90
17146;DHT22;8688;54.444;18.444;2023-03-26T10:34:43;8.80;99.90
17146;DHT22;8688;54.444;18.444;2023-03-26T10:37:20;8.80;99.90
17146;DHT22;8688;54.444;18.444;2023-03-26T10:40:08;8.70;99.90
17146;DHT22;8688;54.444;18.444;2023-03-26T10:42:56;8.60;99.90
17146;DHT22;8688;54.444;18.444;2023-03-26T10:45:39;8.70;99.90
17146;DHT22;8688;54.444;18.444;2023-03-26T10:48:20;8.60;99.90
17146;DHT22;8688;54.444;18.444;2023-03-26T10:51:03;8.60;99.90
17146;DHT22;8688;54.444;18.444;2023-03-26T10:53:37;8.60;99.90
17146;DHT22;8688;54.444;18.444;2023-03-26T10:56:15;8.60;99.90
17146;DHT22;8688;54.444;18.444;2023-03-26T10:58:45;8.50;99.90
17146;DHT22;8688;54.444;18.444;2023-03-26T11:01:21;8.50;99.90
17146;DHT22;8688;54.444;18.444;2023-03-26T11:03:51;8.60;99.90
17146;DHT22;8688;54.444;18.444;2023-03-26T11:06:40;8.80;99.90
17146;DHT22;8688;54.444;18.444;2023-03-26T11:09:23;8.80;99.90
17146;DHT22;8688;54.444;18.444;2023-03-26T11:11:59;8.60;99.90
17146;DHT22;8688;54.444;18.444;2023-03-26T11:14:34;8.60;99.90
17146;DHT22;8688;54.444;18.444;2023-03-26T11:17:11;8.80;99.90
17146;DHT22;8688;54.444;18.444;2023-03-26T11:19:46;8.80;99.90
17146;DHT22;8688;54.444;18.444;2023-03-26T11:22:26;8.70;99.90
17146;DHT22;8688;54.444;18.444;2023-03-26T11:27:56;8.60;99.90
17146;DHT22;8688;54.444;18.444;2023-03-26T11:30:39;8.50;99.90
17146;DHT22;8688;54.444;18.444;2023-03-26T11:33:11;8.50;99.90
17146;DHT22;8688;54.444;18.444;2023-03-26T11:35:45;8.60;99.90
17146;DHT22;8688;54.444;18.444;2023-03-26T11:38:20;8.70;1.00
17146;DHT22;8688;54.444;18.444;2023-03-26T11:40:52;8.80;99.90
17146;DHT22;8688;54.444;18.444;2023-03-26T11:43:25;8.90;99.90
17146;DHT22;8688;54.444;18.444;2023-03-26T11:45:55;9.00;99.90
17146;DHT22;8688;54.444;18.444;2023-03-26T11:48:27;9.20;99.90
17146;DHT22;8688;54.444;18.444;2023-03-26T11:51:03;9.40;99.90
17146;DHT22;8688;54.444;18.444;2023-03-26T11:53:35;9.50;99.90
17146;DHT22;8688;54.444;18.444;2023-03-26T11:56:07;9.30;99.90
17146;DHT22;8688;54.444;18.444;2023-03-26T11:58:44;9.20;99.90
17146;DHT22;8688;54.444;18.444;2023-03-26T12:01:17;9.20;99.90
17146;DHT22;8688;54.444;18.444;2023-03-26T12:03:56;9.40;1.00
17146;DHT22;8688;54.444;18.444;2023-03-26T12:06:26;9.50;1.00
17146;DHT22;8688;54.444;18.444;2023-03-26T12:08:55;9.40;20.80
17146;DHT22;8688;54.444;18.444;2023-03-26T12:11:25;9.20;99.90
17146;DHT22;8688;54.444;18.444;2023-03-26T12:13:58;9.10;1.00
17146;DHT22;8688;54.444;18.444;2023-03-26T12:16:26;8.90;1.00
17146;DHT22;8688;54.444;18.444;2023-03-26T12:18:59;8.90;99.90
17146;DHT22;8688;54.444;18.444;2023-03-26T12:21:27;8.70;1.00
17146;DHT22;8688;54.444;18.444;2023-03-26T12:23:58;8.60;1.00
17146;DHT22;8688;54.444;18.444;2023-03-26T12:26:37;8.40;1.00
17146;DHT22;8688;54.444;18.444;2023-03-26T12:29:09;8.40;1.00
17146;DHT22;8688;54.444;18.444;2023-03-26T12:31:44;8.60;1.00
17146;DHT22;8688;54.444;18.444;2023-03-26T12:34:16;8.50;1.00
17146;DHT22;8688;54.444;18.444;2023-03-26T12:36:49;8.40;1.00
17146;DHT22;8688;54.444;18.444;2023-03-26T12:39:33;8.30;1.00
17146;DHT22;8688;54.444;18.444;2023-03-26T12:42:04;8.30;1.00
17146;DHT22;8688;54.444;18.444;2023-03-26T12:44:43;8.30;1.00
17146;DHT22;8688;54.444;18.444;2023-03-26T12:47:20;8.50;99.90
17146;DHT22;8688;54.444;18.444;2023-03-26T12:49:50;8.60;1.00
17146;DHT22;8688;54.444;18.444;2023-03-26T12:52:47;8.60;1.00
17146;DHT22;8688;54.444;18.444;2023-03-26T12:55:38;8.80;1.00
17146;DHT22;8688;54.444;18.444;2023-03-26T12:58:21;9.00;1.00
17146;DHT22;8688;54.444;18.444;2023-03-26T13:00:59;9.10;99.90
17146;DHT22;8688;54.444;18.444;2023-03-26T13:03:51;9.30;99.90
17146;DHT22;8688;54.444;18.444;2023-03-26T13:06:32;9.20;99.90
17146;DHT22;8688;54.444;18.444;2023-03-26T13:12:15;8.90;1.00
17146;DHT22;8688;54.444;18.444;2023-03-26T13:15:05;8.70;1.00
17146;DHT22;8688;54.444;18.444;2023-03-26T13:17:40;8.60;1.00
17146;DHT22;8688;54.444;18.444;2023-03-26T13:20:14;8.60;1.00
17146;DHT22;8688;54.444;18.444;2023-03-26T13:22:51;8.60;99.90
17146;DHT22;8688;54.444;18.444;2023-03-26T13:25:32;8.40;1.00
17146;DHT22;8688;54.444;18.444;2023-03-26T13:28:12;8.50;1.00
17146;DHT22;8688;54.444;18.444;2023-03-26T13:30:48;8.60;99.90
17146;DHT22;8688;54.444;18.444;2023-03-26T13:33:32;8.50;1.00
17146;DHT22;8688;54.444;18.444;2023-03-26T13:36:09;8.50;1.00
17146;DHT22;8688;54.444;18.444;2023-03-26T13:38:48;8.40;1.00
17146;DHT22;8688;54.444;18.444;2023-03-26T13:41:24;8.40;1.00
17146;DHT22;8688;54.444;18.444;2023-03-26T13:44:02;8.50;1.00
17146;DHT22;8688;54.444;18.444;2023-03-26T13:46:37;8.40;1.00
17146;DHT22;8688;54.444;18.444;2023-03-26T13:49:10;8.20;1.00
17146;DHT22;8688;54.444;18.444;2023-03-26T13:51:43;8.10;1.00
17146;DHT22;8688;54.444;18.444;2023-03-26T13:54:19;8.00;1.00
17146;DHT22;8688;54.444;18.444;2023-03-26T13:56:53;8.40;1.00
17146;DHT22;8688;54.444;18.444;2023-03-26T13:59:30;8.90;1.00
17146;DHT22;8688;54.444;18.444;2023-03-26T14:02:07;9.20;1.00
17146;DHT22;8688;54.444;18.444;2023-03-26T14:04:39;9.20;99.90
17146;DHT22;8688;54.444;18.444;2023-03-26T14:07:16;9.20;99.90
17146;DHT22;8688;54.444;18.444;2023-03-26T14:09:54;9.30;99.90
17146;DHT22;8688;54.444;18.444;2023-03-26T14:15:26;9.50;1.00
17146;DHT22;8688;54.444;18.444;2023-03-26T14:18:04;9.30;1.00
17146;DHT22;8688;54.444;18.444;2023-03-26T14:21:02;9.10;1.00
17146;DHT22;8688;54.444;18.444;2023-03-26T14:26:55;8.60;1.00
17146;DHT22;8688;54.444;18.444;2023-03-26T14:29:43;8.70;1.00
17146;DHT22;8688;54.444;18.444;2023-03-26T14:32:41;8.80;1.00
17146;DHT22;8688;54.444;18.444;2023-03-26T14:35:23;8.70;1.00
17146;DHT22;8688;54.444;18.444;2023-03-26T14:38:18;8.60;1.00
17146;DHT22;8688;54.444;18.444;2023-03-26T14:41:12;8.80;1.00
17146;DHT22;8688;54.444;18.444;2023-03-26T14:47:01;8.80;1.00
17146;DHT22;8688;54.444;18.444;2023-03-26T14:52:39;9.40;99.90
17146;DHT22;8688;54.444;18.444;2023-03-26T14:55:21;9.40;16.00
17146;DHT22;8688;54.444;18.444;2023-03-26T14:58:16;9.40;1.60
17146;DHT22;8688;54.444;18.444;2023-03-26T15:01:21;9.40;1.00
17146;DHT22;8688;54.444;18.444;2023-03-26T15:13:44;8.20;1.00
17146;DHT22;8688;54.444;18.444;2023-03-26T15:16:55;8.10;1.00
17146;DHT22;8688;54.444;18.444;2023-03-26T15:20:08;8.10;1.00
17146;DHT22;8688;54.444;18.444;2023-03-26T15:26:05;7.80;1.00
17146;DHT22;8688;54.444;18.444;2023-03-26T15:29:02;7.70;1.00
17146;DHT22;8688;54.444;18.444;2023-03-26T15:31:45;7.60;1.00
17146;DHT22;8688;54.444;18.444;2023-03-26T15:34:41;7.50;1.00
17146;DHT22;8688;54.444;18.444;2023-03-26T15:40:43;7.30;1.00
17146;DHT22;8688;54.444;18.444;2023-03-26T15:43:15;7.20;1.00
17146;DHT22;8688;54.444;18.444;2023-03-26T15:45:51;7.00;1.00
17146;DHT22;8688;54.444;18.444;2023-03-26T15:48:44;6.90;1.00
17146;DHT22;8688;54.444;18.444;2023-03-26T15:51:36;6.80;1.00
17146;DHT22;8688;54.444;18.444;2023-03-26T15:54:13;6.60;8.90
17146;DHT22;8688;54.444;18.444;2023-03-26T15:57:06;6.50;26.00
17146;DHT22;8688;54.444;18.444;2023-03-26T15:59:47;6.40;29.60
17146;DHT22;8688;54.444;18.444;2023-03-26T16:02:28;6.40;48.90
17146;DHT22;8688;54.444;18.444;2023-03-26T16:05:24;6.30;51.90
17146;DHT22;8688;54.444;18.444;2023-03-26T16:08:00;6.20;63.60
17146;DHT22;8688;54.444;18.444;2023-03-26T16:10:39;6.10;13.90
17146;DHT22;8688;54.444;18.444;2023-03-26T16:13:35;6.10;61.80
17146;DHT22;8688;54.444;18.444;2023-03-26T16:16:21;6.10;1.00
17146;DHT22;8688;54.444;18.444;2023-03-26T16:19:29;6.00;1.00
17146;DHT22;8688;54.444;18.444;2023-03-26T16:22:03;6.00;1.00
17146;DHT22;8688;54.444;18.444;2023-03-26T16:24:36;5.90;1.00
17146;DHT22;8688;54.444;18.444;2023-03-26T16:27:27;5.90;1.00
17146;DHT22;8688;54.444;18.444;2023-03-26T16:30:27;5.80;1.00
17146;DHT22;8688;54.444;18.444;2023-03-26T16:33:08;5.80;1.00
17146;DHT22;8688;54.444;18.444;2023-03-26T16:38:45;5.70;1.00
17146;DHT22;8688;54.444;18.444;2023-03-26T16:41:18;5.60;1.00
17146;DHT22;8688;54.444;18.444;2023-03-26T16:43:54;5.60;1.00
17146;DHT22;8688;54.444;18.444;2023-03-26T16:46:42;5.60;1.00
17146;DHT22;8688;54.444;18.444;2023-03-26T16:49:25;5.50;1.00
17146;DHT22;8688;54.444;18.444;2023-03-26T16:52:05;5.50;1.00
17146;DHT22;8688;54.444;18.444;2023-03-26T16:54:49;5.50;1.00
17146;DHT22;8688;54.444;18.444;2023-03-26T16:57:24;5.30;1.00
17146;DHT22;8688;54.444;18.444;2023-03-26T17:00:25;5.20;1.00
17146;DHT22;8688;54.444;18.444;2023-03-26T17:03:12;5.10;1.00
17146;DHT22;8688;54.444;18.444;2023-03-26T17:05:56;5.00;1.00
17146;DHT22;8688;54.444;18.444;2023-03-26T17:08:38;4.90;1.00
17146;DHT22;8688;54.444;18.444;2023-03-26T17:11:23;4.80;1.00
17146;DHT22;8688;54.444;18.444;2023-03-26T17:14:02;4.70;1.00
17146;DHT22;8688;54.444;18.444;2023-03-26T17:16:36;4.60;1.00
17146;DHT22;8688;54.444;18.444;2023-03-26T17:19:16;4.60;1.00
17146;DHT22;8688;54.444;18.444;2023-03-26T17:21:55;4.50;1.00
17146;DHT22;8688;54.444;18.444;2023-03-26T17:24:36;4.40;1.00
17146;DHT22;8688;54.444;18.444;2023-03-26T17:27:19;4.40;1.00
17146;DHT22;8688;54.444;18.444;2023-03-26T17:30:00;4.30;1.00
17146;DHT22;8688;54.444;18.444;2023-03-26T17:32:53;4.20;1.00
17146;DHT22;8688;54.444;18.444;2023-03-26T17:35:40;4.20;1.00
17146;DHT22;8688;54.444;18.444;2023-03-26T17:41:47;4.10;1.00
17146;DHT22;8688;54.444;18.444;2023-03-26T17:44:28;4.10;1.00
17146;DHT22;8688;54.444;18.444;2023-03-26T17:47:22;4.10;1.00
17146;DHT22;8688;54.444;18.444;2023-03-26T17:49:56;4.10;53.40
17146;DHT22;8688;54.444;18.444;2023-03-26T17:52:44;4.00;99.90